Time;durP1;ratioP1;P1;durP2;ratioP2;P2;SDS_P1;SDS_P2;PMS_P1;PMS_P2;Temp;Humidity;BMP_temperature;BMP_pressure;BME280_temperature;BME280_humidity;BME280_pressure;Samples;Min_cycle;Max_cycle;Signal;HPM_P1;HPM_P2
2021/04/04 00:01:27;;;;;;;17.73;9.30;;;;;;;;;;5094326;28;20711;-76
2021/04/04 00:03:53;;;;;;;20.48;8.80;;;;;;;;;;5093785;28;20257;-76
2021/04/04 00:06:19;;;;;;;24.70;9.65;;;;;;;;;;5092631;28;20225;-76
2021/04/04 00:08:45;;;;;;;16.02;9.25;;;;;;;;;;5094504;28;20179;-76
2021/04/04 00:11:11;;;;;;;21.90;9.88;;;;;;;;;;5099542;28;20214;-76
2021/04/04 00:13:37;;;;;;;17.20;9.75;;;;;;;;;;5109783;27;20215;-76
2021/04/04 00:16:04;;;;;;;26.13;10.20;;;;;;;;;;5099856;28;20297;-77
2021/04/04 00:18:30;;;;;;;20.75;10.02;;;;;;;;;;5113210;28;20697;-76
2021/04/04 00:20:56;;;;;;;26.95;11.07;;;;;;;;;;5105659;28;20182;-75
2021/04/04 00:23:22;;;;;;;24.83;9.67;;;;;;;;;;5114209;28;20169;-76
2021/04/04 00:25:48;;;;;;;22.40;10.00;;;;;;;;;;5107662;28;20475;-75
2021/04/04 00:28:14;;;;;;;25.65;9.15;;;;;;;;;;5103847;28;20219;-77
2021/04/04 00:30:40;;;;;;;21.83;8.88;;;;;;;;;;5093878;28;20258;-77
2021/04/04 00:33:07;;;;;;;19.63;8.60;;;;;;;;;;5093447;28;20201;-76
2021/04/04 00:35:33;;;;;;;25.60;9.80;;;;;;;;;;5086691;28;20214;-76
2021/04/04 00:37:59;;;;;;;19.15;9.98;;;;;;;;;;5100734;28;20563;-77
2021/04/04 00:40:30;;;;;;;22.38;9.63;;;;;;;;;;5080307;28;20528;-75
2021/04/04 00:42:57;;;;;;;15.18;9.07;;;;;;;;;;5093655;28;20167;-76
2021/04/04 00:45:24;;;;;;;22.20;9.32;;;;;;;;;;5112754;28;20194;-76
2021/04/04 00:47:50;;;;;;;23.17;10.15;;;;;;;;;;5088010;28;20224;-76
2021/04/04 00:50:17;;;;;;;26.40;10.40;;;;;;;;;;5093604;28;20245;-77
2021/04/04 00:52:44;;;;;;;20.20;10.52;;;;;;;;;;5093548;28;20263;-76
2021/04/04 00:55:11;;;;;;;22.50;11.05;;;;;;;;;;5093011;28;20199;-76
2021/04/04 00:57:37;;;;;;;25.58;11.57;;;;;;;;;;5093751;28;20205;-76
2021/04/04 01:00:05;;;;;;;21.42;9.88;;;;;;;;;;5113854;28;20531;-75
2021/04/04 01:02:31;;;;;;;21.17;9.93;;;;;;;;;;5102171;28;20211;-76
2021/04/04 01:05:00;;;;;;;24.17;10.05;;;;;;;;;;5099765;28;20258;-75
2021/04/04 01:07:26;;;;;;;24.23;10.98;;;;;;;;;;5113918;28;20529;-75
2021/04/04 01:09:52;;;;;;;21.02;9.50;;;;;;;;;;5102230;28;20175;-75
2021/04/04 01:12:38;;;;;;;18.98;9.85;;;;;;;;;;5094492;28;20179;-75
2021/04/04 01:15:14;;;;;;;18.35;10.30;;;;;;;;;;5096490;28;20245;-75
2021/04/04 01:17:41;;;;;;;20.95;9.70;;;;;;;;;;5092881;28;20179;-76
2021/04/04 01:20:19;;;;;;;19.55;9.07;;;;;;;;;;5092784;28;20659;-75
2021/04/04 01:22:45;;;;;;;20.20;9.13;;;;;;;;;;5113294;28;20256;-76
2021/04/04 01:25:20;;;;;;;19.43;8.50;;;;;;;;;;5101021;28;20207;-76
2021/04/04 01:27:48;;;;;;;23.83;9.15;;;;;;;;;;5080211;28;20405;-76
2021/04/04 01:30:16;;;;;;;23.98;8.73;;;;;;;;;;5093820;28;20181;-76
2021/04/04 01:32:43;;;;;;;16.67;9.60;;;;;;;;;;5113741;28;20253;-76
2021/04/04 01:35:14;;;;;;;21.13;8.80;;;;;;;;;;5102278;28;20244;-76
2021/04/04 01:37:41;;;;;;;17.77;9.50;;;;;;;;;;5093173;28;20172;-76
2021/04/04 01:40:09;;;;;;;18.27;10.07;;;;;;;;;;5095065;28;20187;-76
2021/04/04 01:42:36;;;;;;;16.65;8.60;;;;;;;;;;5113713;28;20177;-76
2021/04/04 01:45:02;;;;;;;19.60;9.43;;;;;;;;;;5102792;28;20207;-76
2021/04/04 01:47:28;;;;;;;22.05;9.13;;;;;;;;;;5090262;28;20171;-76
2021/04/04 01:49:55;;;;;;;19.67;9.05;;;;;;;;;;5096940;28;20539;-75
2021/04/04 01:52:21;;;;;;;23.65;9.85;;;;;;;;;;5113736;28;20179;-76
2021/04/04 01:54:48;;;;;;;19.10;9.48;;;;;;;;;;5102926;28;20187;-76
2021/04/04 01:57:14;;;;;;;26.88;10.40;;;;;;;;;;5093059;28;20640;-76
2021/04/04 01:59:42;;;;;;;20.08;9.40;;;;;;;;;;5097181;28;20332;-76
2021/04/04 02:02:09;;;;;;;20.95;9.73;;;;;;;;;;5101855;28;20242;-76
2021/04/04 02:04:36;;;;;;;20.17;9.60;;;;;;;;;;5097666;28;20190;-76
2021/04/04 02:07:02;;;;;;;22.67;9.75;;;;;;;;;;5112514;28;20194;-76
2021/04/04 02:09:29;;;;;;;22.02;9.60;;;;;;;;;;5096658;28;20187;-76
2021/04/04 02:11:56;;;;;;;16.63;9.10;;;;;;;;;;5096491;28;20183;-77
2021/04/04 02:14:23;;;;;;;15.18;8.50;;;;;;;;;;5100514;28;20183;-76
2021/04/04 02:16:51;;;;;;;20.00;9.23;;;;;;;;;;5116758;28;20271;-76
2021/04/04 02:19:19;;;;;;;17.73;8.85;;;;;;;;;;5097366;28;20244;-76
2021/04/04 02:21:47;;;;;;;17.45;8.73;;;;;;;;;;5096291;28;20179;-75
2021/04/04 02:24:13;;;;;;;19.02;8.93;;;;;;;;;;5102307;28;20265;-76
2021/04/04 02:26:39;;;;;;;21.10;8.38;;;;;;;;;;5116921;28;20193;-76
2021/04/04 02:29:06;;;;;;;19.23;10.32;;;;;;;;;;5100447;28;20703;-76
2021/04/04 02:31:40;;;;;;;20.55;9.32;;;;;;;;;;5096441;28;20250;-76
2021/04/04 02:34:15;;;;;;;20.92;8.20;;;;;;;;;;5103456;28;20485;-76
2021/04/04 02:36:41;;;;;;;16.42;8.75;;;;;;;;;;5100140;28;20392;-76
2021/04/04 02:39:09;;;;;;;20.83;9.40;;;;;;;;;;5096872;28;20237;-75
2021/04/04 02:41:36;;;;;;;26.27;9.57;;;;;;;;;;5116535;28;20202;-76
2021/04/04 02:44:02;;;;;;;16.63;9.10;;;;;;;;;;5102120;28;20171;-78
2021/04/04 02:46:29;;;;;;;20.63;8.55;;;;;;;;;;5089619;28;20267;-76
2021/04/04 02:49:00;;;;;;;19.60;9.60;;;;;;;;;;5097846;28;20188;-76
2021/04/04 02:51:32;;;;;;;13.68;7.93;;;;;;;;;;5116769;28;20174;-77
2021/04/04 02:53:59;;;;;;;21.75;8.98;;;;;;;;;;5103771;28;20299;-76
2021/04/04 02:56:25;;;;;;;21.83;9.00;;;;;;;;;;5095781;28;20195;-77
2021/04/04 02:58:53;;;;;;;19.85;8.60;;;;;;;;;;5099503;28;20357;-76
2021/04/04 03:01:20;;;;;;;22.73;8.40;;;;;;;;;;5112580;28;20187;-77
2021/04/04 03:03:47;;;;;;;24.02;8.40;;;;;;;;;;5095437;28;20261;-76
2021/04/04 03:06:15;;;;;;;23.50;8.43;;;;;;;;;;5095700;28;20195;-76
2021/04/04 03:08:43;;;;;;;18.33;8.43;;;;;;;;;;5109633;28;20219;-77
2021/04/04 03:11:10;;;;;;;18.02;8.27;;;;;;;;;;5095943;28;20179;-76
2021/04/04 03:13:37;;;;;;;20.00;8.05;;;;;;;;;;5095230;28;20532;-76
2021/04/04 03:16:04;;;;;;;22.27;8.75;;;;;;;;;;5094433;28;20257;-76
2021/04/04 03:18:31;;;;;;;16.00;7.90;;;;;;;;;;5094641;28;20207;-76
2021/04/04 03:20:57;;;;;;;18.27;8.05;;;;;;;;;;5095207;28;20175;-76
2021/04/04 03:23:24;;;;;;;19.35;8.38;;;;;;;;;;5095194;28;20175;-76
2021/04/04 03:25:50;;;;;;;24.10;8.85;;;;;;;;;;5107412;28;20559;-77
2021/04/04 03:28:18;;;;;;;21.85;10.27;;;;;;;;;;5115657;28;20171;-76
2021/04/04 03:30:46;;;;;;;21.13;8.88;;;;;;;;;;5110317;28;20190;-76
2021/04/04 03:33:14;;;;;;;16.83;7.50;;;;;;;;;;5096432;28;20704;-77
2021/04/04 03:35:40;;;;;;;16.67;8.35;;;;;;;;;;5095323;28;20290;-76
2021/04/04 03:38:08;;;;;;;13.75;7.78;;;;;;;;;;5100353;28;20244;-76
2021/04/04 03:40:34;;;;;;;14.85;8.77;;;;;;;;;;5095067;28;20182;-76
2021/04/04 03:43:02;;;;;;;21.25;8.45;;;;;;;;;;5113530;28;20620;-76
2021/04/04 03:45:28;;;;;;;22.45;8.60;;;;;;;;;;5096310;28;20716;-76
2021/04/04 03:47:55;;;;;;;15.82;8.45;;;;;;;;;;5113302;28;20519;-76
2021/04/04 03:50:21;;;;;;;21.85;9.52;;;;;;;;;;5098594;28;20516;-75
2021/04/04 03:52:48;;;;;;;14.93;8.18;;;;;;;;;;5094370;28;20175;-76
2021/04/04 03:55:16;;;;;;;22.63;8.82;;;;;;;;;;5094355;28;20671;-76
2021/04/04 03:57:43;;;;;;;21.63;8.93;;;;;;;;;;5094761;28;20269;-76
2021/04/04 04:00:11;;;;;;;15.48;8.65;;;;;;;;;;5095885;28;20180;-78
2021/04/04 04:02:38;;;;;;;19.95;7.95;;;;;;;;;;5094739;28;20180;-76
2021/04/04 04:05:04;;;;;;;20.42;8.85;;;;;;;;;;5093823;28;20243;-75
2021/04/04 04:07:31;;;;;;;19.70;9.45;;;;;;;;;;5114637;28;20205;-76
2021/04/04 04:09:58;;;;;;;22.20;8.73;;;;;;;;;;5104095;28;20183;-76
2021/04/04 04:12:25;;;;;;;23.55;9.32;;;;;;;;;;5081053;28;20187;-76
2021/04/04 04:14:51;;;;;;;21.02;8.25;;;;;;;;;;5098915;28;20191;-76
2021/04/04 04:17:17;;;;;;;25.50;8.25;;;;;;;;;;5114624;28;20237;-76
2021/04/04 04:19:43;;;;;;;27.65;10.93;;;;;;;;;;5107424;28;20690;-76
2021/04/04 04:22:09;;;;;;;17.55;7.13;;;;;;;;;;5114806;28;20227;-76
2021/04/04 04:24:36;;;;;;;16.95;7.78;;;;;;;;;;5108255;28;20182;-76
2021/04/04 04:27:04;;;;;;;16.40;7.45;;;;;;;;;;5093711;28;20276;-76
2021/04/04 04:29:30;;;;;;;20.63;7.15;;;;;;;;;;5099620;28;20191;-77
2021/04/04 04:31:58;;;;;;;19.65;7.90;;;;;;;;;;5094222;28;20182;-77
2021/04/04 04:34:24;;;;;;;15.68;6.22;;;;;;;;;;5109410;28;20207;-77
2021/04/04 04:36:52;;;;;;;14.38;7.28;;;;;;;;;;5113338;28;20198;-76
2021/04/04 04:39:18;;;;;;;14.73;7.05;;;;;;;;;;5093336;28;20199;-76
2021/04/04 04:41:49;;;;;;;18.20;8.32;;;;;;;;;;5102246;28;20520;-76
2021/04/04 04:44:19;;;;;;;17.33;6.82;;;;;;;;;;5093151;28;20536;-77
2021/04/04 04:46:45;;;;;;;22.58;7.35;;;;;;;;;;5101125;28;20250;-76
2021/04/04 04:49:11;;;;;;;23.10;6.35;;;;;;;;;;5094417;28;20647;-75
2021/04/04 04:51:38;;;;;;;13.80;6.50;;;;;;;;;;5093607;28;20285;-76
2021/04/04 04:54:04;;;;;;;14.55;6.13;;;;;;;;;;5092746;28;20221;-77
2021/04/04 04:56:31;;;;;;;18.05;7.60;;;;;;;;;;5093614;28;20199;-77
2021/04/04 04:58:57;;;;;;;23.05;7.68;;;;;;;;;;5093347;28;20203;-76
2021/04/04 05:01:27;;;;;;;13.38;6.45;;;;;;;;;;5093323;28;20236;-76
2021/04/04 05:03:53;;;;;;;18.02;6.95;;;;;;;;;;5095645;28;20198;-76
2021/04/04 05:06:20;;;;;;;11.85;6.65;;;;;;;;;;5113709;28;20255;-77
2021/04/04 05:08:46;;;;;;;15.82;6.22;;;;;;;;;;5098476;28;20189;-76
2021/04/04 05:11:13;;;;;;;12.77;6.00;;;;;;;;;;5112592;28;20231;-76
2021/04/04 05:13:40;;;;;;;14.55;6.47;;;;;;;;;;5096743;28;20190;-76
2021/04/04 05:16:13;;;;;;;12.05;6.30;;;;;;;;;;5093289;28;20317;-76
2021/04/04 05:18:45;;;;;;;9.40;5.32;;;;;;;;;;5092923;28;20248;-77
2021/04/04 05:21:12;;;;;;;16.25;6.20;;;;;;;;;;5093059;28;20222;-76
2021/04/04 05:23:38;;;;;;;11.93;5.63;;;;;;;;;;5092595;28;20175;-77
2021/04/04 05:26:04;;;;;;;12.15;5.22;;;;;;;;;;5092913;28;20583;-78
2021/04/04 05:28:32;;;;;;;13.23;5.00;;;;;;;;;;5112536;28;20182;-76
2021/04/04 05:31:02;;;;;;;13.20;5.50;;;;;;;;;;5093490;28;20230;-75
2021/04/04 05:33:28;;;;;;;14.35;5.28;;;;;;;;;;5112595;28;20178;-76
2021/04/04 05:35:54;;;;;;;11.40;5.85;;;;;;;;;;5108473;28;20191;-77
2021/04/04 05:38:20;;;;;;;13.80;4.88;;;;;;;;;;5086699;28;20228;-76
2021/04/04 05:40:47;;;;;;;15.75;5.15;;;;;;;;;;5100786;28;20640;-76
2021/04/04 05:43:14;;;;;;;16.80;5.63;;;;;;;;;;5117494;28;20651;-76
2021/04/04 05:45:56;;;;;;;14.10;4.93;;;;;;;;;;5109961;28;20205;-75
2021/04/04 05:48:41;;;;;;;12.75;4.72;;;;;;;;;;5118332;28;20178;-76
2021/04/04 05:51:16;;;;;;;12.55;5.60;;;;;;;;;;5106664;28;20175;-76
2021/04/04 05:53:48;;;;;;;9.57;4.35;;;;;;;;;;5096525;28;20187;-76
2021/04/04 05:56:32;;;;;;;9.02;4.65;;;;;;;;;;5096957;28;20248;-76
2021/04/04 05:59:00;;;;;;;18.13;4.82;;;;;;;;;;5116806;28;20203;-76
2021/04/04 06:01:29;;;;;;;10.93;5.40;;;;;;;;;;5105047;28;20264;-76
2021/04/04 06:04:14;;;;;;;13.10;5.20;;;;;;;;;;5083201;28;20667;-76
2021/04/04 06:06:48;;;;;;;11.70;4.38;;;;;;;;;;5096190;28;20664;-76
2021/04/04 06:09:19;;;;;;;11.52;4.15;;;;;;;;;;5096472;28;20516;-77
2021/04/04 06:11:54;;;;;;;14.48;5.13;;;;;;;;;;5096388;28;20275;-76
2021/04/04 06:14:28;;;;;;;14.80;4.70;;;;;;;;;;5095611;28;20175;-76
2021/04/04 06:16:57;;;;;;;10.38;4.03;;;;;;;;;;5083308;28;20218;-76
2021/04/04 06:19:28;;;;;;;10.57;3.97;;;;;;;;;;5095932;28;20290;-76
2021/04/04 06:22:07;;;;;;;9.63;3.70;;;;;;;;;;5096330;28;20575;-78
2021/04/04 06:24:33;;;;;;;12.70;4.47;;;;;;;;;;5098605;28;20236;-77
2021/04/04 06:27:07;;;;;;;10.68;4.40;;;;;;;;;;5107003;28;20618;-75
2021/04/04 06:29:50;;;;;;;10.15;4.57;;;;;;;;;;5095590;28;20191;-75
2021/04/04 06:32:20;;;;;;;13.73;4.57;;;;;;;;;;5082967;28;20200;-76
2021/04/04 06:34:52;;;;;;;15.73;3.70;;;;;;;;;;5095451;28;20186;-76
2021/04/04 06:37:34;;;;;;;7.38;4.32;;;;;;;;;;5096071;28;20250;-75
2021/04/04 06:40:07;;;;;;;9.00;3.70;;;;;;;;;;5095869;28;20601;-75
2021/04/04 06:42:36;;;;;;;8.07;4.30;;;;;;;;;;5107672;28;20272;-76
2021/04/04 06:45:13;;;;;;;10.13;3.47;;;;;;;;;;5095684;28;20184;-76
2021/04/04 06:48:01;;;;;;;10.73;3.42;;;;;;;;;;5094809;28;20171;-77
2021/04/04 06:50:31;;;;;;;12.23;3.78;;;;;;;;;;5085894;28;20262;-77
2021/04/04 06:53:16;;;;;;;13.50;7.43;;;;;;;;;;5094285;28;20186;-75
2021/04/04 06:55:48;;;;;;;13.15;4.15;;;;;;;;;;5095904;28;20195;-76
2021/04/04 06:58:14;;;;;;;7.80;3.60;;;;;;;;;;5102098;28;20198;-76
2021/04/04 07:00:59;;;;;;;10.88;4.00;;;;;;;;;;5116247;28;20170;-76
2021/04/04 07:03:27;;;;;;;11.40;5.03;;;;;;;;;;5106595;28;20629;-76
2021/04/04 07:06:05;;;;;;;9.73;4.57;;;;;;;;;;5113236;28;20548;-75
2021/04/04 07:08:34;;;;;;;14.38;5.05;;;;;;;;;;5095514;28;20194;-76
2021/04/04 07:11:03;;;;;;;11.00;4.32;;;;;;;;;;5094873;28;20175;-75
2021/04/04 07:13:35;;;;;;;6.68;3.67;;;;;;;;;;5081770;28;20703;-75
2021/04/04 07:16:08;;;;;;;10.85;4.40;;;;;;;;;;5096669;28;20218;-77
2021/04/04 07:18:46;;;;;;;12.30;5.35;;;;;;;;;;5095198;28;20281;-75
2021/04/04 07:21:37;;;;;;;12.75;4.55;;;;;;;;;;5098870;28;20182;-76
2021/04/04 07:24:26;;;;;;;12.75;4.20;;;;;;;;;;5115284;28;20196;-75
2021/04/04 07:27:04;;;;;;;14.85;5.25;;;;;;;;;;5103900;28;20202;-76
2021/04/04 07:29:30;;;;;;;9.48;4.90;;;;;;;;;;5107770;28;20171;-75
2021/04/04 07:32:05;;;;;;;7.87;4.63;;;;;;;;;;5094543;28;20187;-75
2021/04/04 07:34:52;;;;;;;21.65;5.53;;;;;;;;;;5080992;28;20488;-76
2021/04/04 07:37:28;;;;;;;11.30;4.82;;;;;;;;;;5097819;28;20648;-77
2021/04/04 07:40:15;;;;;;;12.43;5.03;;;;;;;;;;5095073;28;20291;-78
2021/04/04 07:42:40;;;;;;;15.88;6.18;;;;;;;;;;5094727;28;20675;-77
2021/04/04 07:45:19;;;;;;;14.47;5.87;;;;;;;;;;5094564;28;20203;-76
2021/04/04 07:48:08;;;;;;;13.90;7.07;;;;;;;;;;5084439;28;20420;-77
2021/04/04 07:50:38;;;;;;;15.68;9.38;;;;;;;;;;5082705;28;20347;-76
2021/04/04 07:53:09;;;;;;;13.98;6.70;;;;;;;;;;5089575;28;20652;-77
2021/04/04 07:55:53;;;;;;;13.98;6.15;;;;;;;;;;5089572;28;20206;-77
2021/04/04 07:58:22;;;;;;;16.25;5.32;;;;;;;;;;5090352;28;20207;-77
2021/04/04 08:00:51;;;;;;;12.73;5.97;;;;;;;;;;5090430;28;20183;-76
2021/04/04 08:03:20;;;;;;;14.40;6.40;;;;;;;;;;5089724;28;20201;-76
2021/04/04 08:05:47;;;;;;;13.57;6.30;;;;;;;;;;5082179;28;20631;-77
2021/04/04 08:08:26;;;;;;;17.73;6.90;;;;;;;;;;5093786;28;20520;-76
2021/04/04 08:10:52;;;;;;;10.85;6.78;;;;;;;;;;5107260;28;20193;-75
2021/04/04 08:13:24;;;;;;;11.27;6.72;;;;;;;;;;5089572;28;20179;-74
2021/04/04 08:16:09;;;;;;;15.45;6.43;;;;;;;;;;5089025;28;20741;-76
2021/04/04 08:18:36;;;;;;;14.05;6.57;;;;;;;;;;5091883;28;20215;-76
2021/04/04 08:21:04;;;;;;;17.27;6.65;;;;;;;;;;5109175;28;20231;-76
2021/04/04 08:23:36;;;;;;;26.10;7.10;;;;;;;;;;5093368;28;20206;-77
2021/04/04 08:26:13;;;;;;;9.55;5.93;;;;;;;;;;5090252;28;20199;-76
2021/04/04 08:28:51;;;;;;;14.18;6.15;;;;;;;;;;5076659;28;20522;-75
2021/04/04 08:31:38;;;;;;;18.15;5.63;;;;;;;;;;5090033;28;20261;-77
2021/04/04 08:34:10;;;;;;;9.48;5.60;;;;;;;;;;5109365;28;20542;-76
2021/04/04 08:36:43;;;;;;;12.88;5.88;;;;;;;;;;5097887;28;20213;-75
2021/04/04 08:39:10;;;;;;;14.63;5.82;;;;;;;;;;5077388;28;20286;-77
2021/04/04 08:41:37;;;;;;;12.02;5.75;;;;;;;;;;5089865;28;20203;-77
2021/04/04 08:44:11;;;;;;;11.57;6.72;;;;;;;;;;5090057;28;20181;-75
2021/04/04 08:46:45;;;;;;;10.32;5.40;;;;;;;;;;5089404;28;20204;-76
2021/04/04 08:49:11;;;;;;;14.00;6.38;;;;;;;;;;5097924;28;20179;-76
2021/04/04 08:51:40;;;;;;;10.68;5.50;;;;;;;;;;5089497;28;20626;-76
2021/04/04 08:54:09;;;;;;;8.65;5.35;;;;;;;;;;5089379;28;20190;-76
2021/04/04 08:56:35;;;;;;;10.25;4.90;;;;;;;;;;5099036;28;20207;-76
2021/04/04 08:59:03;;;;;;;12.50;5.50;;;;;;;;;;5096885;28;20682;-75
2021/04/04 09:01:35;;;;;;;11.77;5.25;;;;;;;;;;5091453;28;20502;-76
2021/04/04 09:04:03;;;;;;;10.02;5.78;;;;;;;;;;5089133;28;20647;-76
2021/04/04 09:06:40;;;;;;;9.90;6.05;;;;;;;;;;5088866;28;20191;-76
2021/04/04 09:09:25;;;;;;;13.95;6.18;;;;;;;;;;5087945;28;20213;-76
2021/04/04 09:11:53;;;;;;;16.42;4.72;;;;;;;;;;5089738;28;20190;-76
2021/04/04 09:14:20;;;;;;;11.07;4.20;;;;;;;;;;5089417;28;20178;-76
2021/04/04 09:16:52;;;;;;;7.82;5.07;;;;;;;;;;5088760;28;20199;-75
2021/04/04 09:19:26;;;;;;;11.88;4.75;;;;;;;;;;5088070;28;20210;-74
2021/04/04 09:21:52;;;;;;;8.70;3.80;;;;;;;;;;5081094;28;20194;-75
2021/04/04 09:24:18;;;;;;;9.55;4.00;;;;;;;;;;5089109;28;20175;-76
2021/04/04 09:26:44;;;;;;;7.43;3.65;;;;;;;;;;5089136;28;20199;-76
2021/04/04 09:29:12;;;;;;;6.57;3.80;;;;;;;;;;5098742;28;20237;-76
2021/04/04 09:31:39;;;;;;;10.48;4.03;;;;;;;;;;5096643;28;20189;-75
2021/04/04 09:34:05;;;;;;;8.27;3.50;;;;;;;;;;5109353;28;20178;-75
2021/04/04 09:36:39;;;;;;;6.45;3.08;;;;;;;;;;5109527;28;20910;-76
2021/04/04 09:39:06;;;;;;;8.10;3.20;;;;;;;;;;5105771;28;20206;-76
2021/04/04 09:41:32;;;;;;;6.95;4.18;;;;;;;;;;5089051;28;20178;-76
2021/04/04 09:44:04;;;;;;;12.73;3.67;;;;;;;;;;5104505;28;20643;-76
2021/04/04 09:46:30;;;;;;;6.07;4.03;;;;;;;;;;5101117;28;20208;-74
2021/04/04 09:48:56;;;;;;;6.93;4.22;;;;;;;;;;5089055;28;20180;-76
2021/04/04 09:51:23;;;;;;;10.40;4.72;;;;;;;;;;5104175;28;20694;-76
2021/04/04 09:53:53;;;;;;;8.30;4.30;;;;;;;;;;5109201;28;20186;-74
2021/04/04 09:56:19;;;;;;;6.97;3.88;;;;;;;;;;5109186;28;20263;-75
2021/04/04 09:58:46;;;;;;;7.83;4.17;;;;;;;;;;5097848;28;20237;-75
2021/04/04 10:01:19;;;;;;;10.07;4.43;;;;;;;;;;5087708;28;20425;-75
2021/04/04 10:03:55;;;;;;;15.80;4.57;;;;;;;;;;5088847;28;20172;-77
2021/04/04 10:06:21;;;;;;;7.45;3.40;;;;;;;;;;5088961;28;20645;-76
2021/04/04 10:08:57;;;;;;;7.80;3.20;;;;;;;;;;5088991;28;20517;-77
2021/04/04 10:11:24;;;;;;;7.38;3.70;;;;;;;;;;5089314;28;20202;-77
2021/04/04 10:13:51;;;;;;;15.63;8.65;;;;;;;;;;5095692;28;20204;-77
2021/04/04 10:16:18;;;;;;;6.72;4.30;;;;;;;;;;5095176;28;20202;-77
2021/04/04 10:18:59;;;;;;;11.07;3.95;;;;;;;;;;5109509;28;20223;-77
2021/04/04 10:21:25;;;;;;;8.32;3.35;;;;;;;;;;5109647;28;20205;-76
2021/04/04 10:23:51;;;;;;;8.77;3.60;;;;;;;;;;5109219;28;20185;-76
2021/04/04 10:26:20;;;;;;;6.85;4.05;;;;;;;;;;5109523;28;20273;-76
2021/04/04 10:28:51;;;;;;;7.40;4.85;;;;;;;;;;5092111;27;20194;-77
2021/04/04 10:31:18;;;;;;;7.03;3.65;;;;;;;;;;5092504;28;20183;-77
2021/04/04 10:33:44;;;;;;;7.00;3.38;;;;;;;;;;5092357;28;20183;-76
2021/04/04 10:36:11;;;;;;;5.32;2.85;;;;;;;;;;5092644;28;20203;-76
2021/04/04 10:38:37;;;;;;;7.15;3.42;;;;;;;;;;5092258;28;21024;-74
2021/04/04 10:41:03;;;;;;;7.07;3.63;;;;;;;;;;5100408;28;20187;-78
2021/04/04 10:43:35;;;;;;;6.82;3.38;;;;;;;;;;5092149;28;20180;-76
2021/04/04 10:46:03;;;;;;;9.82;3.58;;;;;;;;;;5092356;28;20475;-76
2021/04/04 10:48:29;;;;;;;6.53;3.22;;;;;;;;;;5096774;28;20183;-76
2021/04/04 10:50:56;;;;;;;9.60;4.40;;;;;;;;;;5112763;28;20178;-76
2021/04/04 10:53:22;;;;;;;6.40;3.63;;;;;;;;;;5098048;28;20671;-77
2021/04/04 10:55:49;;;;;;;7.10;3.00;;;;;;;;;;5092094;28;20203;-76
2021/04/04 10:58:19;;;;;;;9.10;3.60;;;;;;;;;;5091724;28;20191;-77
2021/04/04 11:00:45;;;;;;;5.32;2.92;;;;;;;;;;5100707;28;20178;-76
2021/04/04 11:03:11;;;;;;;4.97;2.72;;;;;;;;;;5092582;28;20556;-77
2021/04/04 11:05:37;;;;;;;6.97;2.83;;;;;;;;;;5091387;28;20211;-76
2021/04/04 11:08:04;;;;;;;12.45;3.83;;;;;;;;;;5110917;28;20206;-77
2021/04/04 11:10:30;;;;;;;5.32;3.05;;;;;;;;;;5101669;28;20186;-76
2021/04/04 11:12:57;;;;;;;7.35;3.10;;;;;;;;;;5091290;28;20174;-76
2021/04/04 11:15:24;;;;;;;9.25;3.22;;;;;;;;;;5091506;28;20208;-75
2021/04/04 11:17:51;;;;;;;6.07;2.80;;;;;;;;;;5091630;28;20253;-76
2021/04/04 11:20:19;;;;;;;5.65;2.60;;;;;;;;;;5091446;28;20208;-78
2021/04/04 11:22:48;;;;;;;6.55;2.95;;;;;;;;;;5105263;28;20222;-77
2021/04/04 11:25:16;;;;;;;6.88;2.83;;;;;;;;;;5100411;28;20205;-75
2021/04/04 11:27:49;;;;;;;9.52;3.10;;;;;;;;;;5111282;28;20186;-78
2021/04/04 11:30:30;;;;;;;8.40;3.03;;;;;;;;;;5098222;27;20190;-77
2021/04/04 11:33:29;;;;;;;6.05;2.55;;;;;;;;;;5098003;28;20245;-78
2021/04/04 11:35:58;;;;;;;5.32;3.65;;;;;;;;;;5067028;28;20326;-77
2021/04/04 11:38:24;;;;;;;6.20;2.88;;;;;;;;;;5103356;28;20210;-77
2021/04/04 11:41:08;;;;;;;6.82;3.33;;;;;;;;;;5105987;28;20186;-77
2021/04/04 11:43:34;;;;;;;7.60;3.10;;;;;;;;;;5087084;28;20254;-77
2021/04/04 11:46:00;;;;;;;10.30;3.00;;;;;;;;;;5090142;28;20195;-76
2021/04/04 11:48:29;;;;;;;6.00;2.90;;;;;;;;;;5088566;28;20267;-77
2021/04/04 11:51:11;;;;;;;8.13;3.28;;;;;;;;;;5090772;28;20176;-77
2021/04/04 11:53:44;;;;;;;7.32;3.05;;;;;;;;;;5077407;28;20584;-75
2021/04/04 11:56:30;;;;;;;7.00;3.70;;;;;;;;;;5091823;28;20680;-75
2021/04/04 11:58:56;;;;;;;6.75;3.15;;;;;;;;;;5110980;28;20306;-75
2021/04/04 12:01:22;;;;;;;8.18;2.92;;;;;;;;;;5096614;27;20185;-76
2021/04/04 12:03:48;;;;;;;9.18;2.63;;;;;;;;;;5090525;28;20187;-77
2021/04/04 12:06:14;;;;;;;5.50;2.92;;;;;;;;;;5094155;28;20198;-76
2021/04/04 12:08:40;;;;;;;4.45;2.47;;;;;;;;;;5107779;28;20179;-76
2021/04/04 12:11:06;;;;;;;4.40;2.30;;;;;;;;;;5090595;28;20545;-77
2021/04/04 12:13:32;;;;;;;5.15;2.20;;;;;;;;;;5089978;28;20671;-77
2021/04/04 12:15:59;;;;;;;3.90;2.38;;;;;;;;;;5090636;28;20203;-76
2021/04/04 12:18:25;;;;;;;4.07;2.35;;;;;;;;;;5090645;28;20233;-75
2021/04/04 12:21:00;;;;;;;4.30;2.63;;;;;;;;;;5092908;28;20191;-76
2021/04/04 12:23:26;;;;;;;4.90;2.35;;;;;;;;;;5110750;28;20173;-75
2021/04/04 12:25:52;;;;;;;4.10;1.97;;;;;;;;;;5091244;28;20287;-78
2021/04/04 12:28:18;;;;;;;5.10;2.28;;;;;;;;;;5090072;28;20429;-76
2021/04/04 12:30:44;;;;;;;5.60;2.40;;;;;;;;;;5091330;28;20187;-78
2021/04/04 12:33:11;;;;;;;7.30;2.42;;;;;;;;;;5089717;28;20612;-77
2021/04/04 12:35:47;;;;;;;5.75;3.10;;;;;;;;;;5109150;28;20208;-76
2021/04/04 12:38:29;;;;;;;5.35;2.50;;;;;;;;;;5093210;28;20240;-77
2021/04/04 12:40:59;;;;;;;4.47;2.55;;;;;;;;;;5078196;28;20180;-77
2021/04/04 12:43:25;;;;;;;6.90;2.97;;;;;;;;;;5089457;28;20895;-76
2021/04/04 12:45:51;;;;;;;3.80;2.30;;;;;;;;;;5090175;28;20252;-75
2021/04/04 12:48:21;;;;;;;4.82;2.60;;;;;;;;;;5092552;28;20270;-75
2021/04/04 12:50:48;;;;;;;8.15;3.05;;;;;;;;;;5109588;28;20198;-76
2021/04/04 12:53:41;;;;;;;6.97;3.40;;;;;;;;;;5093916;28;20265;-76
2021/04/04 12:56:07;;;;;;;6.05;2.92;;;;;;;;;;5087687;28;20215;-77
2021/04/04 12:58:36;;;;;;;3.80;2.55;;;;;;;;;;5089585;28;20221;-75
2021/04/04 13:01:06;;;;;;;5.85;2.92;;;;;;;;;;5089810;28;20191;-74
2021/04/04 13:03:33;;;;;;;5.82;2.83;;;;;;;;;;5089161;28;20210;-76
2021/04/04 13:05:59;;;;;;;5.72;2.80;;;;;;;;;;5103029;28;20202;-76
2021/04/04 13:08:28;;;;;;;4.22;2.80;;;;;;;;;;5110247;28;20308;-76
2021/04/04 13:10:57;;;;;;;4.38;2.20;;;;;;;;;;5107285;28;20718;-76
2021/04/04 13:13:30;;;;;;;6.97;2.70;;;;;;;;;;5107458;28;20228;-76
2021/04/04 13:15:57;;;;;;;4.00;2.25;;;;;;;;;;5089699;28;20196;-76
2021/04/04 13:18:24;;;;;;;3.97;2.13;;;;;;;;;;5090228;28;20528;-77
2021/04/04 13:20:51;;;;;;;3.95;2.60;;;;;;;;;;5089932;28;20205;-77
2021/04/04 13:23:17;;;;;;;5.90;2.33;;;;;;;;;;5098729;28;20174;-76
2021/04/04 13:25:44;;;;;;;6.93;2.65;;;;;;;;;;5101063;28;20199;-77
2021/04/04 13:28:10;;;;;;;3.63;2.78;;;;;;;;;;5091461;28;20179;-75
2021/04/04 13:30:37;;;;;;;7.10;2.45;;;;;;;;;;5091817;28;20244;-76
2021/04/04 13:33:03;;;;;;;5.22;2.80;;;;;;;;;;5089298;28;20185;-76
2021/04/04 13:35:30;;;;;;;4.90;2.90;;;;;;;;;;5091138;28;20195;-76
2021/04/04 13:37:57;;;;;;;6.43;2.92;;;;;;;;;;5093374;28;20180;-76
2021/04/04 13:40:24;;;;;;;5.20;2.58;;;;;;;;;;5091886;28;20310;-75
2021/04/04 13:42:51;;;;;;;4.90;2.40;;;;;;;;;;5090162;28;20175;-76
2021/04/04 13:45:38;;;;;;;4.90;3.20;;;;;;;;;;5091450;28;20206;-76
2021/04/04 13:48:04;;;;;;;6.13;2.90;;;;;;;;;;5088327;28;20229;-76
2021/04/04 13:50:44;;;;;;;5.00;2.83;;;;;;;;;;5089232;28;20577;-76
2021/04/04 13:53:16;;;;;;;7.10;3.40;;;;;;;;;;5088790;28;20192;-75
2021/04/04 13:55:42;;;;;;;4.68;3.00;;;;;;;;;;5088973;28;20207;-77
2021/04/04 13:58:08;;;;;;;4.85;3.10;;;;;;;;;;5089023;28;20240;-78
2021/04/04 14:00:43;;;;;;;3.97;3.00;;;;;;;;;;5088790;28;20217;-76
2021/04/04 14:03:09;;;;;;;4.95;2.80;;;;;;;;;;5091854;28;20182;-77
2021/04/04 14:05:35;;;;;;;5.40;3.10;;;;;;;;;;5092259;28;20215;-76
2021/04/04 14:08:05;;;;;;;7.35;3.72;;;;;;;;;;5093113;28;20179;-77
2021/04/04 14:10:31;;;;;;;4.95;4.03;;;;;;;;;;5092550;28;20183;-76
2021/04/04 14:12:57;;;;;;;6.07;3.50;;;;;;;;;;5089087;28;20176;-77
2021/04/04 14:15:23;;;;;;;8.37;4.13;;;;;;;;;;5100732;28;20286;-76
2021/04/04 14:17:49;;;;;;;5.72;3.10;;;;;;;;;;5100948;28;20899;-77
2021/04/04 14:20:16;;;;;;;5.95;3.22;;;;;;;;;;5111756;28;20209;-76
2021/04/04 14:22:42;;;;;;;4.80;3.45;;;;;;;;;;5101833;28;20179;-76
2021/04/04 14:25:08;;;;;;;5.97;3.42;;;;;;;;;;5110285;28;20291;-76
2021/04/04 14:27:34;;;;;;;5.53;4.00;;;;;;;;;;5100268;28;20193;-76
2021/04/04 14:30:00;;;;;;;5.32;3.15;;;;;;;;;;5101298;27;20186;-77
2021/04/04 14:32:26;;;;;;;6.95;3.90;;;;;;;;;;5092642;28;20183;-75
2021/04/04 14:34:52;;;;;;;6.18;2.83;;;;;;;;;;5091987;28;20187;-75
2021/04/04 14:37:18;;;;;;;7.53;3.83;;;;;;;;;;5101319;28;20178;-77
2021/04/04 14:39:44;;;;;;;6.75;3.70;;;;;;;;;;5112441;28;20206;-76
2021/04/04 14:42:10;;;;;;;7.80;3.92;;;;;;;;;;5083474;28;20179;-76
2021/04/04 14:44:37;;;;;;;5.68;3.97;;;;;;;;;;5103742;28;20183;-77
2021/04/04 14:47:03;;;;;;;6.88;4.28;;;;;;;;;;5096168;28;20604;-77